createdAt,value
2018-07-11T00:00:46.750Z,18.39
2018-07-11T00:03:15.856Z,18.48
2018-07-11T00:05:44.505Z,18.66
2018-07-11T00:08:13.193Z,18.50
2018-07-11T00:10:41.867Z,18.47
2018-07-11T00:13:10.524Z,18.34
2018-07-11T00:15:39.175Z,18.33
2018-07-11T00:18:07.823Z,18.37
2018-07-11T00:20:36.479Z,18.44
2018-07-11T00:23:05.425Z,18.36
2018-07-11T00:25:34.075Z,18.37
2018-07-11T00:28:02.741Z,18.39
2018-07-11T00:30:31.414Z,18.34
2018-07-11T00:33:00.100Z,18.38
2018-07-11T00:35:28.744Z,18.33
2018-07-11T00:37:57.449Z,18.35
2018-07-11T00:40:26.096Z,18.37
2018-07-11T00:42:54.756Z,18.24
2018-07-11T00:45:23.432Z,18.30
2018-07-11T00:47:52.081Z,18.34
2018-07-11T00:50:20.751Z,18.44
2018-07-11T00:52:50.084Z,18.37
2018-07-11T00:55:18.772Z,18.49
2018-07-11T00:57:47.421Z,18.47
2018-07-11T01:00:16.092Z,18.40
2018-07-11T01:02:45.040Z,18.39
2018-07-11T01:05:13.721Z,18.42
2018-07-11T01:07:43.119Z,18.38
2018-07-11T01:10:11.840Z,18.43
2018-07-11T01:12:40.509Z,18.42
2018-07-11T01:15:09.212Z,18.44
2018-07-11T01:17:43.469Z,18.52
2018-07-11T01:20:12.161Z,18.43
2018-07-11T01:22:40.825Z,18.47
2018-07-11T01:25:09.481Z,18.41
2018-07-11T01:27:38.132Z,18.37
2018-07-11T01:30:06.803Z,18.38
2018-07-11T01:32:35.478Z,18.29
2018-07-11T01:35:04.298Z,18.28
2018-07-11T01:37:32.948Z,18.33
2018-07-11T01:40:01.581Z,18.28
2018-07-11T01:42:30.261Z,18.33
2018-07-11T01:44:58.900Z,18.23
2018-07-11T01:47:27.553Z,18.37
2018-07-11T01:49:56.336Z,18.32
2018-07-11T01:52:36.340Z,18.40
2018-07-11T01:55:04.973Z,18.33
2018-07-11T01:57:33.604Z,18.30
2018-07-11T02:00:02.261Z,18.29
2018-07-11T02:02:30.892Z,18.40
2018-07-11T02:04:59.508Z,18.35
2018-07-11T02:07:28.163Z,18.35
2018-07-11T02:09:56.887Z,18.29
2018-07-11T02:12:25.497Z,18.28
2018-07-11T02:14:59.423Z,18.23
2018-07-11T02:17:28.093Z,18.21
2018-07-11T02:19:56.761Z,18.26
2018-07-11T02:22:25.423Z,18.23
2018-07-11T02:24:54.185Z,18.25
2018-07-11T02:27:22.842Z,18.39
2018-07-11T02:29:51.498Z,18.34
2018-07-11T02:32:20.197Z,18.35
2018-07-11T02:34:48.859Z,18.26
2018-07-11T02:37:17.500Z,18.28
2018-07-11T02:39:46.165Z,18.23
2018-07-11T02:42:14.842Z,18.32
2018-07-11T02:44:43.483Z,18.29
2018-07-11T02:47:18.261Z,18.40
2018-07-11T02:49:47.108Z,18.36
2018-07-11T02:52:15.793Z,18.38
2018-07-11T02:54:44.461Z,18.47
2018-07-11T02:57:13.084Z,18.35
2018-07-11T02:59:41.849Z,18.38
2018-07-11T03:02:10.556Z,18.38
2018-07-11T03:04:39.712Z,18.47
2018-07-11T03:07:09.077Z,18.50
2018-07-11T03:09:37.753Z,18.46
2018-07-11T03:12:06.493Z,18.46
2018-07-11T03:14:36.973Z,18.42
2018-07-11T03:17:05.609Z,18.49
2018-07-11T03:19:34.296Z,18.46
2018-07-11T03:22:02.936Z,18.41
2018-07-11T03:24:31.540Z,18.47
2018-07-11T03:27:00.163Z,18.44
2018-07-11T03:29:28.789Z,18.57
2018-07-11T03:31:57.459Z,18.59
2018-07-11T03:34:26.035Z,18.50
2018-07-11T03:36:54.724Z,18.55
2018-07-11T03:39:23.612Z,18.44
2018-07-11T03:41:52.300Z,18.44
2018-07-11T03:44:20.923Z,18.41
2018-07-11T03:46:49.583Z,18.34
2018-07-11T03:49:18.208Z,18.33
2018-07-11T03:51:46.891Z,18.32
2018-07-11T03:54:15.528Z,18.32
2018-07-11T03:56:44.224Z,18.44
2018-07-11T03:59:12.966Z,18.47
2018-07-11T04:01:41.617Z,18.41
2018-07-11T04:04:10.247Z,18.40
2018-07-11T04:06:38.873Z,18.27
2018-07-11T04:09:07.500Z,18.30
2018-07-11T04:11:36.189Z,18.32
2018-07-11T04:14:04.875Z,18.29
2018-07-11T04:16:33.519Z,18.34
2018-07-11T04:19:02.195Z,18.30
2018-07-11T04:21:30.797Z,18.36
2018-07-11T04:23:59.415Z,18.41
2018-07-11T04:26:28.073Z,18.30
2018-07-11T04:28:56.704Z,18.27
2018-07-11T04:31:25.340Z,18.18
2018-07-11T04:33:53.993Z,18.18
2018-07-11T04:36:22.637Z,18.26
2018-07-11T04:38:51.749Z,18.27
2018-07-11T04:41:20.412Z,18.23
2018-07-11T04:43:49.078Z,18.12
2018-07-11T04:46:17.785Z,18.18
2018-07-11T04:48:46.392Z,18.22
2018-07-11T04:51:15.046Z,18.32
2018-07-11T04:53:45.173Z,18.28
2018-07-11T04:56:13.872Z,18.29
2018-07-11T04:58:42.517Z,18.20
2018-07-11T05:01:11.136Z,18.10
2018-07-11T05:03:39.776Z,18.13
2018-07-11T05:06:08.407Z,18.14
2018-07-11T05:08:37.075Z,18.09
2018-07-11T05:11:05.794Z,18.07
2018-07-11T05:13:34.379Z,18.05
2018-07-11T05:16:03.022Z,18.03
2018-07-11T05:18:31.692Z,18.07
2018-07-11T05:21:00.384Z,17.95
2018-07-11T05:23:29.060Z,17.99
2018-07-11T05:25:57.679Z,17.81
2018-07-11T05:28:26.466Z,17.82
2018-07-11T05:30:55.101Z,17.76
2018-07-11T05:33:23.793Z,17.77
2018-07-11T05:35:52.447Z,17.70
2018-07-11T05:38:21.096Z,17.66
2018-07-11T05:40:49.744Z,17.60
2018-07-11T05:43:18.404Z,17.55
2018-07-11T05:45:47.115Z,17.60
2018-07-11T05:48:15.782Z,17.62
2018-07-11T05:50:44.458Z,17.68
2018-07-11T05:53:13.513Z,17.64
2018-07-11T05:55:42.183Z,17.76
2018-07-11T05:58:10.881Z,17.91
2018-07-11T06:00:39.535Z,17.89
2018-07-11T06:03:08.349Z,17.84
2018-07-11T06:05:36.965Z,17.88
2018-07-11T06:08:05.604Z,17.98
2018-07-11T06:10:34.224Z,18.00
2018-07-11T06:13:02.863Z,18.07
2018-07-11T06:15:31.513Z,18.09
2018-07-11T06:18:00.152Z,18.11
2018-07-11T06:20:28.820Z,18.07
2018-07-11T06:22:57.470Z,17.93
2018-07-11T06:25:26.112Z,17.96
2018-07-11T06:27:54.838Z,18.05
2018-07-11T06:30:23.460Z,18.07
2018-07-11T06:32:52.113Z,18.03
2018-07-11T06:35:20.748Z,18.03
2018-07-11T06:37:49.422Z,18.08
2018-07-11T06:40:18.080Z,17.99
2018-07-11T06:42:46.762Z,18.09
2018-07-11T06:45:15.380Z,18.12
2018-07-11T06:47:44.003Z,18.11
2018-07-11T06:50:12.762Z,18.13
2018-07-11T06:52:41.427Z,18.11
2018-07-11T06:55:10.055Z,18.15
2018-07-11T06:57:38.694Z,18.15
2018-07-11T07:00:07.271Z,18.07
2018-07-11T07:02:35.891Z,18.09
2018-07-11T07:05:04.544Z,18.14
2018-07-11T07:07:33.196Z,18.11
2018-07-11T07:10:01.877Z,18.20
2018-07-11T07:12:30.523Z,18.14
2018-07-11T07:14:59.224Z,18.14
2018-07-11T07:17:27.914Z,18.18
2018-07-11T07:19:56.541Z,18.21
2018-07-11T07:22:25.225Z,18.34
2018-07-11T07:24:53.914Z,18.33
2018-07-11T07:27:22.579Z,18.50
2018-07-11T07:29:51.257Z,18.55
2018-07-11T07:32:19.964Z,18.56
2018-07-11T07:34:48.630Z,18.57
2018-07-11T07:37:17.289Z,18.64
2018-07-11T07:39:45.953Z,18.72
2018-07-11T07:42:14.595Z,18.85
2018-07-11T07:44:43.263Z,19.09
2018-07-11T07:47:17.375Z,19.22
2018-07-11T07:49:46.408Z,19.33
2018-07-11T07:52:15.302Z,19.37
2018-07-11T07:54:43.960Z,19.38
2018-07-11T07:57:12.765Z,19.59
2018-07-11T07:59:41.485Z,19.37
2018-07-11T08:02:10.196Z,19.27
2018-07-11T08:04:38.856Z,19.15
2018-07-11T08:07:07.501Z,19.28
2018-07-11T08:09:36.152Z,19.44
2018-07-11T08:12:04.859Z,19.35
2018-07-11T08:14:33.523Z,19.15
2018-07-11T08:17:02.148Z,19.22
2018-07-11T08:19:30.936Z,19.28
2018-07-11T08:22:09.895Z,19.18
2018-07-11T08:24:49.924Z,19.40
2018-07-11T08:29:34.054Z,19.21
2018-07-11T08:33:02.976Z,19.51
2018-07-11T08:35:43.758Z,19.39
2018-07-11T08:38:28.943Z,19.22
2018-07-11T08:43:20.401Z,19.11
2018-07-11T08:45:59.629Z,19.07
2018-07-11T08:48:42.963Z,18.93
2018-07-11T08:53:27.488Z,19.06
2018-07-11T08:56:07.531Z,19.01
2018-07-11T09:00:54.892Z,18.96
2018-07-11T09:05:34.244Z,18.88
2018-07-11T09:09:15.189Z,19.06
2018-07-11T09:12:26.990Z,18.92
2018-07-11T09:16:08.344Z,18.99
2018-07-11T09:18:48.335Z,19.03
2018-07-11T09:23:40.424Z,19.12
2018-07-11T09:26:09.081Z,19.14
2018-07-11T09:28:37.756Z,19.20
2018-07-11T09:31:06.432Z,19.10
2018-07-11T09:33:35.057Z,19.04
2018-07-11T09:36:03.773Z,19.07
2018-07-11T09:38:32.453Z,19.11
2018-07-11T09:41:01.103Z,19.06
2018-07-11T09:43:29.720Z,18.99
2018-07-11T09:45:58.396Z,19.09
2018-07-11T09:48:27.041Z,18.99
2018-07-11T09:50:55.756Z,19.09
2018-07-11T09:53:24.449Z,19.06
2018-07-11T09:55:53.129Z,19.03
2018-07-11T09:58:21.772Z,19.15
2018-07-11T10:00:55.725Z,18.98
2018-07-11T10:03:24.435Z,19.07
2018-07-11T10:05:53.391Z,19.07
2018-07-11T10:08:22.013Z,19.11
2018-07-11T10:10:50.660Z,19.01
2018-07-11T10:13:19.290Z,19.18
2018-07-11T10:15:47.918Z,19.35
2018-07-11T10:18:16.564Z,19.32
2018-07-11T10:20:45.242Z,19.25
2018-07-11T10:23:13.875Z,19.46
2018-07-11T10:25:43.000Z,19.38
2018-07-11T10:28:16.732Z,19.40
2018-07-11T10:30:45.375Z,19.47
2018-07-11T10:33:14.899Z,19.54
2018-07-11T10:35:43.647Z,19.54
2018-07-11T10:38:12.960Z,19.53
2018-07-11T10:40:41.600Z,19.52
2018-07-11T10:43:10.603Z,19.55
2018-07-11T10:45:39.218Z,19.67
2018-07-11T10:48:07.868Z,19.67
2018-07-11T10:50:36.557Z,19.83
2018-07-11T10:53:05.319Z,19.76
2018-07-11T10:55:33.944Z,19.75
2018-07-11T10:58:02.633Z,19.63
2018-07-11T11:00:36.655Z,19.71
2018-07-11T11:03:00.040Z,19.69
2018-07-11T11:05:28.668Z,19.65
2018-07-11T11:07:57.296Z,19.74
2018-07-11T11:10:25.907Z,19.66
2018-07-11T11:12:54.520Z,19.87
2018-07-11T11:15:23.164Z,19.73
2018-07-11T11:17:51.822Z,19.62
2018-07-11T11:20:20.417Z,19.66
2018-07-11T11:22:49.107Z,19.73
2018-07-11T11:25:17.781Z,19.73
2018-07-11T11:27:46.403Z,19.76
2018-07-11T11:30:15.034Z,19.68
2018-07-11T11:32:43.654Z,19.72
2018-07-11T11:35:12.300Z,19.80
2018-07-11T11:37:40.956Z,19.86
2018-07-11T11:40:09.616Z,19.95
2018-07-11T11:42:38.320Z,19.74
2018-07-11T11:45:06.883Z,19.76
2018-07-11T11:47:35.532Z,19.81
2018-07-11T11:50:04.138Z,19.82
2018-07-11T11:52:32.763Z,19.60
2018-07-11T11:55:01.387Z,19.60
2018-07-11T11:57:30.044Z,19.52
2018-07-11T11:59:58.660Z,19.62
2018-07-11T12:02:27.320Z,19.85
2018-07-11T12:04:55.967Z,19.74
2018-07-11T12:07:24.797Z,19.56
2018-07-11T12:09:53.387Z,19.77
2018-07-11T12:12:22.008Z,19.90
2018-07-11T12:14:50.652Z,19.94
2018-07-11T12:17:19.294Z,19.96
2018-07-11T12:19:48.216Z,19.96
2018-07-11T12:22:20.485Z,20.01
2018-07-11T12:24:49.320Z,20.03
2018-07-11T12:27:18.284Z,20.07
2018-07-11T12:29:47.174Z,20.20
2018-07-11T12:32:15.836Z,20.28
2018-07-11T12:34:44.472Z,20.31
2018-07-11T12:37:13.501Z,20.44
2018-07-11T12:39:42.170Z,20.59
2018-07-11T12:42:10.843Z,20.36
2018-07-11T12:44:39.445Z,20.47
2018-07-11T12:47:13.470Z,20.22
2018-07-11T12:49:42.265Z,19.99
2018-07-11T12:52:10.900Z,20.00
2018-07-11T12:54:39.565Z,19.98
2018-07-11T12:57:08.679Z,20.04
2018-07-11T12:59:37.390Z,20.03
2018-07-11T13:02:06.041Z,19.97
2018-07-11T13:04:34.691Z,19.85
2018-07-11T13:07:03.344Z,19.96
2018-07-11T13:09:38.677Z,19.84
2018-07-11T13:12:07.533Z,19.86
2018-07-11T13:14:36.162Z,19.81
2018-07-11T13:17:04.831Z,19.81
2018-07-11T13:19:33.466Z,19.79
2018-07-11T13:22:02.181Z,19.83
2018-07-11T13:24:33.848Z,19.87
2018-07-11T13:27:02.484Z,19.80
2018-07-11T13:29:31.153Z,19.86
2018-07-11T13:31:59.792Z,19.95
2018-07-11T13:34:28.440Z,19.96
2018-07-11T13:36:57.064Z,20.01
2018-07-11T13:39:25.689Z,20.25
2018-07-11T13:41:54.324Z,20.32
2018-07-11T13:44:22.972Z,20.40
2018-07-11T13:46:51.591Z,20.61
2018-07-11T13:49:20.272Z,20.56
2018-07-11T13:51:48.892Z,20.53
2018-07-11T13:54:17.908Z,20.53
2018-07-11T13:56:46.560Z,20.63
2018-07-11T13:59:15.508Z,20.72
2018-07-11T14:01:44.323Z,20.66
2018-07-11T14:04:12.928Z,20.64
2018-07-11T14:06:41.541Z,20.90
2018-07-11T14:09:10.160Z,20.86
2018-07-11T14:11:38.755Z,20.80
2018-07-11T14:14:07.400Z,20.79
2018-07-11T14:16:36.024Z,20.84
2018-07-11T14:19:05.198Z,20.72
2018-07-11T14:21:33.976Z,20.63
2018-07-11T14:24:02.617Z,20.79
2018-07-11T14:26:32.829Z,20.62
2018-07-11T14:29:02.568Z,20.60
2018-07-11T14:31:32.570Z,20.69
2018-07-11T14:34:03.020Z,20.71
2018-07-11T14:36:32.140Z,20.86
2018-07-11T14:39:01.000Z,20.95
2018-07-11T14:41:29.604Z,20.77
2018-07-11T14:43:58.528Z,20.75
2018-07-11T14:46:28.902Z,20.73
2018-07-11T14:48:58.003Z,20.59
2018-07-11T14:51:26.666Z,20.61
2018-07-11T14:53:56.403Z,20.72
2018-07-11T14:56:25.370Z,20.77
2018-07-11T14:58:56.691Z,20.66
2018-07-11T15:01:25.367Z,20.69
2018-07-11T15:03:54.335Z,20.71
2018-07-11T15:06:23.567Z,20.58
2018-07-11T15:08:53.092Z,20.40
2018-07-11T15:11:22.057Z,20.39
2018-07-11T15:13:50.919Z,20.47
2018-07-11T15:16:19.731Z,20.33
2018-07-11T15:18:48.900Z,20.54
2018-07-11T15:21:17.548Z,20.54
2018-07-11T15:23:46.144Z,20.63
2018-07-11T15:26:14.859Z,20.76
2018-07-11T15:28:43.625Z,20.61
2018-07-11T15:31:12.276Z,20.56
2018-07-11T15:33:40.909Z,20.69
2018-07-11T15:36:09.607Z,20.71
2018-07-11T15:38:38.240Z,20.56
2018-07-11T15:41:07.129Z,20.57
2018-07-11T15:43:35.839Z,20.73
2018-07-11T15:46:04.500Z,20.87
2018-07-11T15:48:33.163Z,20.73
2018-07-11T15:51:01.892Z,20.68
2018-07-11T15:53:30.537Z,20.60
2018-07-11T15:56:00.103Z,20.60
2018-07-11T15:58:31.143Z,20.51
2018-07-11T16:01:04.767Z,20.37
2018-07-11T16:03:37.327Z,20.40
2018-07-11T16:06:07.534Z,20.30
2018-07-11T16:08:36.228Z,20.22
2018-07-11T16:11:05.019Z,20.20
2018-07-11T16:13:33.636Z,20.16
2018-07-11T16:16:02.277Z,20.28
2018-07-11T16:18:30.930Z,20.51
2018-07-11T16:20:59.664Z,20.40
2018-07-11T16:23:28.318Z,20.41
2018-07-11T16:25:56.965Z,20.20
2018-07-11T16:28:25.643Z,20.19
2018-07-11T16:30:54.277Z,20.16
2018-07-11T16:33:22.909Z,20.11
2018-07-11T16:35:51.620Z,20.11
2018-07-11T16:38:20.268Z,20.15
2018-07-11T16:40:48.931Z,20.21
2018-07-11T16:43:17.575Z,20.21
2018-07-11T16:45:46.207Z,20.20
2018-07-11T16:48:14.860Z,20.19
2018-07-11T16:50:43.527Z,20.12
2018-07-11T16:53:12.148Z,20.02
2018-07-11T16:55:40.800Z,19.97
2018-07-11T16:58:10.947Z,19.95
2018-07-11T17:00:39.624Z,19.95
2018-07-11T17:03:13.674Z,19.94
2018-07-11T17:05:48.942Z,20.01
2018-07-11T17:08:21.308Z,19.96
2018-07-11T17:10:49.916Z,19.95
2018-07-11T17:13:22.027Z,19.83
2018-07-11T17:15:52.215Z,19.74
2018-07-11T17:18:32.409Z,19.76
2018-07-11T17:21:05.731Z,19.74
2018-07-11T17:23:34.907Z,19.74
2018-07-11T17:26:03.920Z,19.77
2018-07-11T17:28:32.564Z,19.77
2018-07-11T17:31:01.836Z,19.82
2018-07-11T17:33:30.500Z,19.84
2018-07-11T17:35:59.155Z,19.83
2018-07-11T17:38:30.127Z,19.82
2018-07-11T17:41:00.793Z,19.76
2018-07-11T17:43:32.919Z,19.86
2018-07-11T17:46:02.751Z,20.01
2018-07-11T17:48:56.470Z,20.00
2018-07-11T17:52:34.485Z,20.01
2018-07-11T17:55:08.517Z,20.14
2018-07-11T17:57:43.587Z,20.13
2018-07-11T18:00:12.617Z,20.21
2018-07-11T18:02:49.267Z,20.31
2018-07-11T18:05:27.036Z,20.25
2018-07-11T18:07:56.568Z,20.17
2018-07-11T18:10:36.322Z,19.90
2018-07-11T18:13:25.492Z,19.83
2018-07-11T18:17:09.859Z,20.07
2018-07-11T18:20:17.332Z,20.13
2018-07-11T18:24:04.359Z,20.00
2018-07-11T18:26:51.372Z,20.03
2018-07-11T18:30:02.668Z,19.95
2018-07-11T18:32:43.353Z,20.03
2018-07-11T18:35:18.754Z,20.06
2018-07-11T18:37:53.112Z,20.15
2018-07-11T18:40:30.422Z,20.13
2018-07-11T18:43:41.157Z,19.98
2018-07-11T18:46:21.400Z,19.83
2018-07-11T18:49:02.258Z,19.85
2018-07-11T18:51:43.428Z,19.74
2018-07-11T18:54:25.867Z,19.71
2018-07-11T18:57:03.805Z,19.65
2018-07-11T19:00:43.788Z,19.72
2018-07-11T19:03:26.499Z,19.62
2018-07-11T19:06:06.837Z,19.61
2018-07-11T19:08:44.624Z,19.71
2018-07-11T19:11:20.894Z,19.80
2018-07-11T19:13:52.058Z,19.90
2018-07-11T19:16:33.296Z,19.87
2018-07-11T19:19:06.616Z,19.82
2018-07-11T19:22:12.451Z,20.03
2018-07-11T19:26:56.438Z,19.94
2018-07-11T19:30:33.756Z,19.86
2018-07-11T19:33:21.237Z,19.88
2018-07-11T19:36:13.109Z,19.86
2018-07-11T19:41:00.088Z,19.88
2018-07-11T19:43:35.800Z,19.96
2018-07-11T19:48:28.108Z,19.92
2018-07-11T19:51:07.340Z,19.99
2018-07-11T19:53:44.033Z,19.95
2018-07-11T19:56:26.857Z,19.92
2018-07-11T19:58:55.647Z,19.92
2018-07-11T20:01:24.392Z,20.07
2018-07-11T20:03:53.043Z,20.06
2018-07-11T20:06:22.456Z,20.00
2018-07-11T20:08:51.924Z,19.87
2018-07-11T20:11:21.417Z,19.85
2018-07-11T20:13:51.607Z,19.77
2018-07-11T20:16:20.618Z,19.72
2018-07-11T20:18:49.293Z,19.69
2018-07-11T20:21:18.046Z,19.62
2018-07-11T20:23:47.312Z,19.59
2018-07-11T20:26:16.321Z,19.56
2018-07-11T20:28:46.197Z,19.55
2018-07-11T20:31:15.582Z,19.52
2018-07-11T20:33:44.242Z,19.61
2018-07-11T20:36:13.278Z,19.65
2018-07-11T20:38:42.552Z,19.65
2018-07-11T20:41:11.224Z,19.66
2018-07-11T20:43:40.051Z,19.60
2018-07-11T20:46:09.233Z,19.52
2018-07-11T20:48:38.457Z,19.54
2018-07-11T20:51:07.434Z,19.56
2018-07-11T20:53:36.152Z,19.65
2018-07-11T20:56:04.875Z,19.63
2018-07-11T20:58:45.063Z,19.69
2018-07-11T21:01:25.079Z,19.61
2018-07-11T21:08:11.908Z,19.63
2018-07-11T21:10:58.544Z,19.58
2018-07-11T21:14:15.256Z,19.59
2018-07-11T21:17:54.855Z,19.66
2018-07-11T21:20:23.482Z,19.72
2018-07-11T21:22:52.154Z,19.81
2018-07-11T21:25:20.795Z,19.80
2018-07-11T21:27:49.724Z,19.82
2018-07-11T21:30:18.376Z,19.83
2018-07-11T21:32:47.011Z,19.75
2018-07-11T21:35:15.777Z,19.72
2018-07-11T21:37:44.465Z,19.58
2018-07-11T21:40:13.197Z,19.37
2018-07-11T21:42:41.825Z,19.37
2018-07-11T21:45:10.504Z,19.44
2018-07-11T21:47:39.225Z,19.31
2018-07-11T21:50:07.972Z,19.15
2018-07-11T21:52:36.671Z,19.11
2018-07-11T21:55:05.429Z,19.06
2018-07-11T21:57:34.906Z,19.01
2018-07-11T22:00:03.605Z,18.96
2018-07-11T22:02:32.264Z,18.95
2018-07-11T22:05:00.971Z,18.94
2018-07-11T22:07:29.619Z,18.96
2018-07-11T22:09:58.336Z,18.97
2018-07-11T22:12:26.998Z,18.94
2018-07-11T22:14:55.662Z,18.92
2018-07-11T22:18:28.625Z,18.89
2018-07-11T22:20:56.305Z,18.91
2018-07-11T22:23:23.983Z,18.95
2018-07-11T22:25:51.700Z,18.95
2018-07-11T22:28:19.392Z,19.00
2018-07-11T22:30:47.079Z,18.92
2018-07-11T22:33:14.779Z,18.84
2018-07-11T22:35:42.447Z,18.95
2018-07-11T22:38:10.391Z,19.12
2018-07-11T22:40:38.394Z,19.08
2018-07-11T22:43:06.313Z,19.17
2018-07-11T22:45:34.224Z,19.12
2018-07-11T22:48:01.929Z,18.99
2018-07-11T22:50:30.067Z,18.99
2018-07-11T22:52:57.747Z,19.10
2018-07-11T22:55:25.511Z,19.00
2018-07-11T22:57:53.352Z,18.95
2018-07-11T23:00:21.077Z,18.98
2018-07-11T23:02:48.741Z,18.91
2018-07-11T23:05:16.432Z,18.99
2018-07-11T23:07:44.092Z,18.91
2018-07-11T23:10:11.784Z,19.01
2018-07-11T23:12:39.438Z,18.93
2018-07-11T23:15:07.098Z,18.85
2018-07-11T23:17:34.792Z,18.85
2018-07-11T23:20:02.473Z,18.89
2018-07-11T23:22:30.162Z,18.93
2018-07-11T23:24:57.850Z,18.88
2018-07-11T23:27:25.506Z,18.84
2018-07-11T23:29:53.172Z,18.82
2018-07-11T23:32:20.889Z,18.82
2018-07-11T23:34:48.644Z,18.78
2018-07-11T23:37:16.307Z,18.77
2018-07-11T23:39:44.097Z,18.83
2018-07-11T23:42:11.768Z,18.82
2018-07-11T23:44:39.419Z,18.82
2018-07-11T23:47:07.135Z,18.92
2018-07-11T23:49:34.811Z,18.94
2018-07-11T23:52:02.503Z,18.83
2018-07-11T23:54:30.195Z,18.78
2018-07-11T23:56:57.861Z,18.83
2018-07-11T23:59:25.526Z,18.84
